This is the latest recevied weather packets stored in our database for station/object DH0DM-13. If no packets are shown the sender has not sent any weather packets the latest 10 day(s).
| Time | Temp. | Humidity | Pressure | Rain* | Wind** | Luminosity | Snow |
|---|---|---|---|---|---|---|---|
| 1777664734 | 10° C | 70% | 999.4 hPa | 0 mm | 0 m/s | - | - |
| 1777664133 | 10.56° C | 68% | 999.7 hPa | 0 mm | 0 m/s | - | - |
| 1777663532 | 11.11° C | 66% | 999.5 hPa | 0 mm | 0 m/s | - | - |
| 1777662931 | 11.11° C | 65% | 999.6 hPa | 0 mm | 0 m/s | - | - |
| 1777662330 | 11.11° C | 65% | 999.6 hPa | 0 mm | 0 m/s | - | - |
| 1777661729 | 11.67° C | 65% | 999.4 hPa | 0 mm | 0 m/s | - | - |
| 1777661128 | 12.78° C | 63% | 999.5 hPa | 0 mm | 0 m/s | - | - |
| 1777660528 | 13.33° C | 62% | 999.3 hPa | 0 mm | 0 m/s | - | - |
| 1777659927 | 14.44° C | 60% | 999 hPa | 0 mm | 0 m/s | - | - |
| 1777659326 | 15° C | 57% | 999.1 hPa | 0 mm | 0 m/s | - | - |
| 1777658725 | 16.11° C | 50% | 998.9 hPa | 0 mm | 0 m/s | - | - |
| 1777658124 | 17.22° C | 46% | 998.9 hPa | 0 mm | 0 m/s | - | - |
| 1777657523 | 19.44° C | 38% | 998.8 hPa | 0 mm | 0 m/s | - | - |
| 1777656922 | 21.11° C | 35% | 999 hPa | 0 mm | 0 m/s | - | - |
| 1777656322 | 22.22° C | 30% | 998.9 hPa | 0 mm | 1.34 m/s, 243° | - | - |
| 1777655721 | 21.67° C | 29% | 999.1 hPa | 0 mm | 0 m/s | - | - |
| 1777655120 | 22.22° C | 29% | 999.1 hPa | 0 mm | 3.58 m/s, 352° | - | - |
| 1777654519 | 22.22° C | 29% | 999.3 hPa | 0 mm | 0.89 m/s, 13° | - | - |
| 1777653918 | 22.78° C | 28% | 999.2 hPa | 0 mm | 0 m/s | - | - |
| 1777653317 | 22.78° C | 27% | 999.2 hPa | 0 mm | 1.34 m/s, 302° | - | - |
| 1777652716 | 22.78° C | 27% | 999.3 hPa | 0 mm | 0.89 m/s, 14° | - | - |
| 1777652116 | 22.78° C | 27% | 999.5 hPa | 0 mm | 0.89 m/s, 352° | - | - |
| 1777651515 | 23.33° C | 27% | 999.3 hPa | 0 mm | 0.89 m/s, 24° | - | - |
| 1777650914 | 22.78° C | 27% | 999.4 hPa | 0 mm | 0 m/s | - | - |
| 1777650313 | 22.78° C | 26% | 999.5 hPa | 0 mm | 0.45 m/s, 325° | - | - |
* Rain since midnight (hover to see other rain measurements)
** Current wind speed in m/s (hover to see current wind gust speed)